sensor_id;sensor_type;location;lat;lon;timestamp;pressure;altitude;pressure_sealevel;temperature;humidity
70343;BME280;57767;42.068;24.752;2023-03-24T00:01:00;99100.50;;;8.08;71.91
70343;BME280;57767;42.068;24.752;2023-03-24T00:02:03;99093.44;;;8.08;71.58
70343;BME280;57767;42.068;24.752;2023-03-24T00:03:05;99096.72;;;8.10;71.46
70343;BME280;57767;42.068;24.752;2023-03-24T00:04:08;99096.88;;;8.09;71.59
70343;BME280;57767;42.068;24.752;2023-03-24T00:05:18;99079.56;;;8.00;71.21
70343;BME280;57767;42.068;24.752;2023-03-24T00:06:20;99088.53;;;8.05;70.77
70343;BME280;57767;42.068;24.752;2023-03-24T00:07:27;99086.91;;;8.04;71.11
70343;BME280;57767;42.068;24.752;2023-03-24T00:08:33;99085.56;;;8.08;70.84
70343;BME280;57767;42.068;24.752;2023-03-24T00:09:37;99083.91;;;8.07;70.51
70343;BME280;57767;42.068;24.752;2023-03-24T00:10:38;99091.19;;;8.05;70.42
70343;BME280;57767;42.068;24.752;2023-03-24T00:11:41;99095.63;;;8.05;69.78
70343;BME280;57767;42.068;24.752;2023-03-24T00:12:44;99093.25;;;8.10;69.72
70343;BME280;57767;42.068;24.752;2023-03-24T00:13:47;99096.72;;;8.10;69.34
70343;BME280;57767;42.068;24.752;2023-03-24T00:14:51;99088.53;;;8.05;69.57
70343;BME280;57767;42.068;24.752;2023-03-24T00:15:55;99094.25;;;8.09;69.94
70343;BME280;57767;42.068;24.752;2023-03-24T00:16:57;99093.44;;;8.08;69.94
70343;BME280;57767;42.068;24.752;2023-03-24T00:18:00;99092.91;;;7.98;69.57
70343;BME280;57767;42.068;24.752;2023-03-24T00:19:02;99099.63;;;7.86;69.89
70343;BME280;57767;42.068;24.752;2023-03-24T00:20:06;99094.03;;;7.89;69.14
70343;BME280;57767;42.068;24.752;2023-03-24T00:21:08;99092.19;;;7.89;70.49
70343;BME280;57767;42.068;24.752;2023-03-24T00:22:12;99095.19;;;7.86;70.13
70343;BME280;57767;42.068;24.752;2023-03-24T00:23:14;99090.16;;;7.85;69.89
70343;BME280;57767;42.068;24.752;2023-03-24T00:24:16;99092.16;;;7.83;70.17
70343;BME280;57767;42.068;24.752;2023-03-24T00:25:20;99096.00;;;7.87;69.40
70343;BME280;57767;42.068;24.752;2023-03-24T00:26:28;99094.03;;;7.89;69.73
70343;BME280;57767;42.068;24.752;2023-03-24T00:27:30;99090.75;;;7.87;69.46
70343;BME280;57767;42.068;24.752;2023-03-24T00:28:37;99083.44;;;7.82;69.02
70343;BME280;57767;42.068;24.752;2023-03-24T00:29:39;99089.94;;;7.86;68.83
70343;BME280;57767;42.068;24.752;2023-03-24T00:30:41;99094.19;;;7.87;68.64
70343;BME280;57767;42.068;24.752;2023-03-24T00:31:43;99089.88;;;7.80;68.62
70343;BME280;57767;42.068;24.752;2023-03-24T00:32:46;99074.00;;;7.73;68.81
70343;BME280;57767;42.068;24.752;2023-03-24T00:33:50;99076.28;;;7.76;68.82
70343;BME280;57767;42.068;24.752;2023-03-24T00:34:52;99092.78;;;7.85;69.21
70343;BME280;57767;42.068;24.752;2023-03-24T00:35:54;99085.34;;;7.74;69.53
70343;BME280;57767;42.068;24.752;2023-03-24T00:36:58;99088.97;;;7.73;69.83
70343;BME280;57767;42.068;24.752;2023-03-24T00:38:00;99071.69;;;7.64;70.15
70343;BME280;57767;42.068;24.752;2023-03-24T00:39:04;99085.72;;;7.71;70.21
70343;BME280;57767;42.068;24.752;2023-03-24T00:40:10;99086.44;;;7.65;70.43
70343;BME280;57767;42.068;24.752;2023-03-24T00:41:13;99087.56;;;7.55;70.73
70343;BME280;57767;42.068;24.752;2023-03-24T00:42:15;99083.47;;;7.53;71.24
70343;BME280;57767;42.068;24.752;2023-03-24T00:43:17;99079.75;;;7.47;70.51
70343;BME280;57767;42.068;24.752;2023-03-24T00:44:19;99085.63;;;7.49;71.06
70343;BME280;57767;42.068;24.752;2023-03-24T00:45:21;99080.03;;;7.38;71.92
70343;BME280;57767;42.068;24.752;2023-03-24T00:46:26;99074.06;;;7.14;72.00
70343;BME280;57767;42.068;24.752;2023-03-24T00:47:29;99070.16;;;7.25;72.05
70343;BME280;57767;42.068;24.752;2023-03-24T00:48:31;99074.25;;;7.28;71.72
70343;BME280;57767;42.068;24.752;2023-03-24T00:49:33;99066.53;;;7.26;71.74
70343;BME280;57767;42.068;24.752;2023-03-24T00:50:46;99072.59;;;7.27;71.87
70343;BME280;57767;42.068;24.752;2023-03-24T00:51:48;99054.75;;;7.22;71.71
70343;BME280;57767;42.068;24.752;2023-03-24T00:52:52;99062.91;;;7.27;71.11
70343;BME280;57767;42.068;24.752;2023-03-24T00:53:55;99072.72;;;7.33;71.86
70343;BME280;57767;42.068;24.752;2023-03-24T00:55:00;99072.72;;;7.33;71.49
70343;BME280;57767;42.068;24.752;2023-03-24T00:56:02;99071.09;;;7.32;71.01
70343;BME280;57767;42.068;24.752;2023-03-24T00:57:06;99080.84;;;7.38;71.22
70343;BME280;57767;42.068;24.752;2023-03-24T00:58:08;99069.53;;;7.38;70.49
70343;BME280;57767;42.068;24.752;2023-03-24T00:59:10;99077.88;;;7.41;70.53
70343;BME280;57767;42.068;24.752;2023-03-24T01:00:19;99072.50;;;7.35;70.49
70343;BME280;57767;42.068;24.752;2023-03-24T01:01:21;99074.41;;;7.41;70.73
70343;BME280;57767;42.068;24.752;2023-03-24T01:02:25;99074.13;;;7.36;71.00
70343;BME280;57767;42.068;24.752;2023-03-24T01:03:28;99071.72;;;7.34;71.01
70343;BME280;57767;42.068;24.752;2023-03-24T01:04:30;99076.59;;;7.37;70.60
70343;BME280;57767;42.068;24.752;2023-03-24T01:05:32;99073.31;;;7.35;70.62
70343;BME280;57767;42.068;24.752;2023-03-24T01:06:37;99074.78;;;7.38;70.97
70343;BME280;57767;42.068;24.752;2023-03-24T01:07:40;99071.91;;;7.33;71.05
70343;BME280;57767;42.068;24.752;2023-03-24T01:08:44;99066.19;;;7.29;71.08
70343;BME280;57767;42.068;24.752;2023-03-24T01:09:47;99074.88;;;7.30;70.94
70343;BME280;57767;42.068;24.752;2023-03-24T01:10:58;99069.81;;;7.28;70.60
70343;BME280;57767;42.068;24.752;2023-03-24T01:12:02;99068.19;;;7.27;71.68
70343;BME280;57767;42.068;24.752;2023-03-24T01:13:04;99064.47;;;7.22;71.78
70343;BME280;57767;42.068;24.752;2023-03-24T01:14:07;99070.16;;;7.25;71.64
70343;BME280;57767;42.068;24.752;2023-03-24T01:15:15;99065.25;;;7.22;71.95
70343;BME280;57767;42.068;24.752;2023-03-24T01:16:18;99064.72;;;7.12;71.86
70343;BME280;57767;42.068;24.752;2023-03-24T01:17:20;99059.47;;;7.12;71.89
70343;BME280;57767;42.068;24.752;2023-03-24T01:18:27;99070.16;;;7.10;71.81
70343;BME280;57767;42.068;24.752;2023-03-24T01:19:30;99059.44;;;6.97;72.28
70343;BME280;57767;42.068;24.752;2023-03-24T01:20:33;99069.06;;;7.05;72.28
70343;BME280;57767;42.068;24.752;2023-03-24T01:21:38;99065.91;;;7.09;71.91
70343;BME280;57767;42.068;24.752;2023-03-24T01:22:41;99068.81;;;7.14;72.05
70343;BME280;57767;42.068;24.752;2023-03-24T01:23:45;99056.84;;;7.12;72.21
70343;BME280;57767;42.068;24.752;2023-03-24T01:24:49;99060.22;;;7.06;72.32
70343;BME280;57767;42.068;24.752;2023-03-24T01:25:51;99053.84;;;7.00;72.16
70343;BME280;57767;42.068;24.752;2023-03-24T01:26:54;99046.25;;;6.91;72.86
70343;BME280;57767;42.068;24.752;2023-03-24T01:27:56;99050.41;;;7.00;72.60
70343;BME280;57767;42.068;24.752;2023-03-24T01:28:58;99057.66;;;6.98;73.22
70343;BME280;57767;42.068;24.752;2023-03-24T01:30:00;99058.56;;;7.05;72.75
70343;BME280;57767;42.068;24.752;2023-03-24T01:31:04;99049.25;;;7.02;73.19
70343;BME280;57767;42.068;24.752;2023-03-24T01:32:09;99054.22;;;6.97;72.94
70343;BME280;57767;42.068;24.752;2023-03-24T01:33:10;99046.53;;;6.96;73.16
70343;BME280;57767;42.068;24.752;2023-03-24T01:34:12;99051.06;;;7.02;73.40
70343;BME280;57767;42.068;24.752;2023-03-24T01:35:17;99043.09;;;6.95;73.45
70343;BME280;57767;42.068;24.752;2023-03-24T01:36:19;99049.78;;;6.98;73.79
70343;BME280;57767;42.068;24.752;2023-03-24T01:37:23;99042.34;;;6.87;74.13
70343;BME280;57767;42.068;24.752;2023-03-24T01:38:25;99038.09;;;6.86;73.81
70343;BME280;57767;42.068;24.752;2023-03-24T01:39:27;99039.19;;;6.91;73.55
70343;BME280;57767;42.068;24.752;2023-03-24T01:40:30;99034.22;;;6.96;73.35
70343;BME280;57767;42.068;24.752;2023-03-24T01:41:37;99041.91;;;6.98;72.86
70343;BME280;57767;42.068;24.752;2023-03-24T01:42:43;99025.72;;;6.94;73.26
70343;BME280;57767;42.068;24.752;2023-03-24T01:43:44;99032.47;;;6.89;73.37
70343;BME280;57767;42.068;24.752;2023-03-24T01:44:50;99026.97;;;6.83;73.55
70343;BME280;57767;42.068;24.752;2023-03-24T01:45:57;99041.53;;;6.86;73.93
70343;BME280;57767;42.068;24.752;2023-03-24T01:47:05;99031.31;;;6.91;73.74
70343;BME280;57767;42.068;24.752;2023-03-24T01:48:11;99034.13;;;6.90;73.81
70343;BME280;57767;42.068;24.752;2023-03-24T01:49:19;99022.81;;;6.89;74.19
70343;BME280;57767;42.068;24.752;2023-03-24T01:50:21;99029.69;;;6.90;74.13
70343;BME280;57767;42.068;24.752;2023-03-24T01:51:29;99032.13;;;6.77;74.35
70343;BME280;57767;42.068;24.752;2023-03-24T01:52:36;99029.03;;;6.73;74.67
70343;BME280;57767;42.068;24.752;2023-03-24T01:53:43;99010.41;;;6.68;74.57
70343;BME280;57767;42.068;24.752;2023-03-24T01:54:55;99009.56;;;6.68;74.32
70343;BME280;57767;42.068;24.752;2023-03-24T01:56:01;99012.28;;;6.74;74.38
70343;BME280;57767;42.068;24.752;2023-03-24T01:57:50;99018.06;;;6.84;73.58
70343;BME280;57767;42.068;24.752;2023-03-24T01:58:32;99013.47;;;6.87;73.57
70343;BME280;57767;42.068;24.752;2023-03-24T01:59:39;99022.63;;;6.91;73.11
70343;BME280;57767;42.068;24.752;2023-03-24T02:00:43;99018.19;;;6.91;73.23
70343;BME280;57767;42.068;24.752;2023-03-24T02:01:45;99024.34;;;6.98;72.50
70343;BME280;57767;42.068;24.752;2023-03-24T02:02:51;99018.91;;;7.00;72.13
70343;BME280;57767;42.068;24.752;2023-03-24T02:03:57;99012.41;;;6.96;71.55
70343;BME280;57767;42.068;24.752;2023-03-24T02:05:03;99023.63;;;7.04;71.74
70343;BME280;57767;42.068;24.752;2023-03-24T02:06:07;99027.44;;;7.02;71.91
70343;BME280;57767;42.068;24.752;2023-03-24T02:07:22;99011.78;;;6.94;72.36
70343;BME280;57767;42.068;24.752;2023-03-24T02:09:37;99024.81;;;7.02;72.11
70343;BME280;57767;42.068;24.752;2023-03-24T02:10:39;99020.47;;;6.94;72.42
70343;BME280;57767;42.068;24.752;2023-03-24T02:11:42;99021.88;;;6.97;72.43
70343;BME280;57767;42.068;24.752;2023-03-24T02:12:44;99025.63;;;7.02;72.30
70343;BME280;57767;42.068;24.752;2023-03-24T02:13:50;99025.25;;;6.91;72.65
70343;BME280;57767;42.068;24.752;2023-03-24T02:14:52;99024.34;;;6.83;73.05
70343;BME280;57767;42.068;24.752;2023-03-24T02:17:06;99030.84;;;6.88;73.13
70343;BME280;57767;42.068;24.752;2023-03-24T02:20:07;99029.16;;;6.95;71.88
70343;BME280;57767;42.068;24.752;2023-03-24T02:21:44;99036.28;;;7.01;71.38
70343;BME280;57767;42.068;24.752;2023-03-24T02:26:11;99038.03;;;7.08;71.77
70343;BME280;57767;42.068;24.752;2023-03-24T02:31:56;99041.28;;;7.10;71.53
70343;BME280;57767;42.068;24.752;2023-03-24T02:40:11;99045.69;;;7.10;70.96
70343;BME280;57767;42.068;24.752;2023-03-24T02:46:50;99060.09;;;6.99;71.30
70343;BME280;57767;42.068;24.752;2023-03-24T02:49:27;99057.28;;;7.01;70.82
70343;BME280;57767;42.068;24.752;2023-03-24T02:52:35;99062.91;;;6.98;70.97
70343;BME280;57767;42.068;24.752;2023-03-24T02:56:36;99064.91;;;6.96;70.89
70343;BME280;57767;42.068;24.752;2023-03-24T02:57:51;99063.88;;;6.97;70.48
70343;BME280;57767;42.068;24.752;2023-03-24T02:58:59;99069.34;;;6.95;70.28
70343;BME280;57767;42.068;24.752;2023-03-24T03:00:09;99067.88;;;6.93;69.92
70343;BME280;57767;42.068;24.752;2023-03-24T03:01:28;99064.09;;;6.95;69.78
70343;BME280;57767;42.068;24.752;2023-03-24T03:02:36;99068.88;;;6.92;69.67
70343;BME280;57767;42.068;24.752;2023-03-24T03:03:44;99074.59;;;6.95;69.86
70343;BME280;57767;42.068;24.752;2023-03-24T03:04:53;99071.34;;;6.93;69.50
70343;BME280;57767;42.068;24.752;2023-03-24T03:06:02;99072.84;;;6.88;69.26
70343;BME280;57767;42.068;24.752;2023-03-24T03:07:06;99069.66;;;6.77;70.72
70343;BME280;57767;42.068;24.752;2023-03-24T03:08:15;99073.09;;;6.78;70.63
70343;BME280;57767;42.068;24.752;2023-03-24T03:09:22;99076.56;;;6.78;70.97
70343;BME280;57767;42.068;24.752;2023-03-24T03:10:45;99076.19;;;6.81;70.55
70343;BME280;57767;42.068;24.752;2023-03-24T03:11:51;99086.06;;;6.79;71.20
70343;BME280;57767;42.068;24.752;2023-03-24T03:12:58;99084.06;;;6.81;71.04
70343;BME280;57767;42.068;24.752;2023-03-24T03:14:06;99087.69;;;6.80;70.38
70343;BME280;57767;42.068;24.752;2023-03-24T03:15:13;99089.66;;;6.78;70.83
70343;BME280;57767;42.068;24.752;2023-03-24T03:16:22;99093.13;;;6.79;70.78
70343;BME280;57767;42.068;24.752;2023-03-24T03:17:30;99089.66;;;6.78;71.13
70343;BME280;57767;42.068;24.752;2023-03-24T03:18:42;99083.94;;;6.75;70.66
70343;BME280;57767;42.068;24.752;2023-03-24T03:19:50;99087.94;;;6.71;71.27
70343;BME280;57767;42.068;24.752;2023-03-24T03:21:01;99089.75;;;6.70;71.40
70343;BME280;57767;42.068;24.752;2023-03-24T03:22:10;99103.13;;;6.75;70.90
70343;BME280;57767;42.068;24.752;2023-03-24T03:23:14;99102.50;;;6.73;71.27
70343;BME280;57767;42.068;24.752;2023-03-24T03:24:20;99110.38;;;6.73;71.59
70343;BME280;57767;42.068;24.752;2023-03-24T03:25:34;99120.69;;;6.75;71.25
70343;BME280;57767;42.068;24.752;2023-03-24T03:26:38;99115.19;;;6.70;71.25
70343;BME280;57767;42.068;24.752;2023-03-24T03:27:43;99109.53;;;6.58;71.64
70343;BME280;57767;42.068;24.752;2023-03-24T03:28:52;99109.06;;;6.55;71.81
70343;BME280;57767;42.068;24.752;2023-03-24T03:30:08;99123.81;;;6.56;71.83
70343;BME280;57767;42.068;24.752;2023-03-24T03:31:18;99103.69;;;6.48;71.92
70343;BME280;57767;42.068;24.752;2023-03-24T03:32:26;99113.16;;;6.57;71.59
70343;BME280;57767;42.068;24.752;2023-03-24T03:33:38;99103.63;;;6.56;72.20
70343;BME280;57767;42.068;24.752;2023-03-24T03:34:51;99099.25;;;6.48;72.57
70343;BME280;57767;42.068;24.752;2023-03-24T03:36:05;99099.97;;;6.42;72.95
70343;BME280;57767;42.068;24.752;2023-03-24T03:38:48;99086.44;;;6.31;74.39
70343;BME280;57767;42.068;24.752;2023-03-24T03:39:57;99081.22;;;6.31;74.17
70343;BME280;57767;42.068;24.752;2023-03-24T03:41:02;99073.75;;;6.20;74.86
70343;BME280;57767;42.068;24.752;2023-03-24T03:42:07;99060.00;;;6.18;75.22
70343;BME280;57767;42.068;24.752;2023-03-24T03:43:08;99052.78;;;6.20;74.57
70343;BME280;57767;42.068;24.752;2023-03-24T03:44:10;99041.41;;;6.04;75.22
70343;BME280;57767;42.068;24.752;2023-03-24T03:45:12;99042.81;;;5.92;75.21
70343;BME280;57767;42.068;24.752;2023-03-24T03:46:17;99025.16;;;5.78;76.00
70343;BME280;57767;42.068;24.752;2023-03-24T03:47:19;99031.50;;;5.84;76.52
70343;BME280;57767;42.068;24.752;2023-03-24T03:48:23;99019.38;;;5.83;76.70
70343;BME280;57767;42.068;24.752;2023-03-24T03:49:27;99024.63;;;5.83;76.40
70343;BME280;57767;42.068;24.752;2023-03-24T03:50:29;99015.16;;;5.82;76.06
70343;BME280;57767;42.068;24.752;2023-03-24T03:51:32;99015.94;;;5.90;76.64
70343;BME280;57767;42.068;24.752;2023-03-24T03:52:36;99006.38;;;5.97;75.94
70343;BME280;57767;42.068;24.752;2023-03-24T03:53:51;99010.53;;;5.92;75.42
70343;BME280;57767;42.068;24.752;2023-03-24T03:54:54;99012.34;;;5.91;75.62
70343;BME280;57767;42.068;24.752;2023-03-24T03:55:57;99006.94;;;5.85;76.61
70343;BME280;57767;42.068;24.752;2023-03-24T03:56:59;99013.16;;;5.84;76.67
70343;BME280;57767;42.068;24.752;2023-03-24T03:58:02;98999.06;;;5.85;77.34
70343;BME280;57767;42.068;24.752;2023-03-24T03:59:06;98994.81;;;5.84;77.09
70343;BME280;57767;42.068;24.752;2023-03-24T04:00:19;98999.16;;;5.99;77.83
70343;BME280;57767;42.068;24.752;2023-03-24T04:01:28;99008.00;;;5.98;77.38
70343;BME280;57767;42.068;24.752;2023-03-24T04:04:08;99021.53;;;6.10;77.38
70343;BME280;57767;42.068;24.752;2023-03-24T04:05:29;99020.38;;;6.13;76.87
70343;BME280;57767;42.068;24.752;2023-03-24T04:14:18;99011.50;;;6.36;75.72
70343;BME280;57767;42.068;24.752;2023-03-24T04:20:08;99037.19;;;6.41;76.80
70343;BME280;57767;42.068;24.752;2023-03-24T04:28:25;99047.44;;;6.51;75.82
70343;BME280;57767;42.068;24.752;2023-03-24T04:29:39;99043.00;;;6.51;75.23
70343;BME280;57767;42.068;24.752;2023-03-24T04:30:46;99045.28;;;6.54;75.28
70343;BME280;57767;42.068;24.752;2023-03-24T04:31:54;99048.56;;;6.56;74.70
70343;BME280;57767;42.068;24.752;2023-03-24T04:33:05;99054.06;;;6.61;74.94
70343;BME280;57767;42.068;24.752;2023-03-24T04:34:10;99055.34;;;6.65;75.23
70343;BME280;57767;42.068;24.752;2023-03-24T04:35:21;99056.16;;;6.66;74.30
70343;BME280;57767;42.068;24.752;2023-03-24T04:36:39;99039.69;;;6.57;74.06
70343;BME280;57767;42.068;24.752;2023-03-24T04:37:46;99054.00;;;6.69;74.09
70343;BME280;57767;42.068;24.752;2023-03-24T04:38:50;99058.25;;;6.70;74.04
70343;BME280;57767;42.068;24.752;2023-03-24T04:39:56;99056.91;;;6.74;74.01
70343;BME280;57767;42.068;24.752;2023-03-24T04:40:59;99047.13;;;6.68;74.76
70343;BME280;57767;42.068;24.752;2023-03-24T04:42:08;99059.16;;;6.77;74.29
70343;BME280;57767;42.068;24.752;2023-03-24T04:43:16;99067.50;;;6.81;74.65
70343;BME280;57767;42.068;24.752;2023-03-24T04:44:20;99060.88;;;6.70;74.37
70343;BME280;57767;42.068;24.752;2023-03-24T04:45:23;99060.25;;;6.68;75.21
70343;BME280;57767;42.068;24.752;2023-03-24T04:46:26;99064.03;;;6.66;75.15
70343;BME280;57767;42.068;24.752;2023-03-24T04:47:31;99067.66;;;6.65;75.35
70343;BME280;57767;42.068;24.752;2023-03-24T04:48:35;99063.88;;;6.67;75.37
70343;BME280;57767;42.068;24.752;2023-03-24T04:49:38;99049.09;;;6.66;75.62
70343;BME280;57767;42.068;24.752;2023-03-24T04:50:51;99050.41;;;6.70;75.33
70343;BME280;57767;42.068;24.752;2023-03-24T04:51:54;99060.50;;;6.73;75.33
70343;BME280;57767;42.068;24.752;2023-03-24T04:52:56;99059.53;;;6.74;74.65
70343;BME280;57767;42.068;24.752;2023-03-24T04:54:00;99065.06;;;6.79;74.59
70343;BME280;57767;42.068;24.752;2023-03-24T04:55:17;99057.84;;;6.81;75.05
70343;BME280;57767;42.068;24.752;2023-03-24T04:57:35;99058.38;;;6.92;76.11
70343;BME280;57767;42.068;24.752;2023-03-24T04:58:37;99048.22;;;6.89;76.16
70343;BME280;57767;42.068;24.752;2023-03-24T04:59:38;99056.31;;;7.02;77.19
70343;BME280;57767;42.068;24.752;2023-03-24T05:00:41;99063.91;;;7.11;77.86
70343;BME280;57767;42.068;24.752;2023-03-24T05:01:45;99051.88;;;7.17;78.47
70343;BME280;57767;42.068;24.752;2023-03-24T05:02:52;99064.47;;;7.22;77.14
70343;BME280;57767;42.068;24.752;2023-03-24T05:03:58;99053.22;;;7.28;77.30
70343;BME280;57767;42.068;24.752;2023-03-24T05:04:59;99051.25;;;7.30;76.75
70343;BME280;57767;42.068;24.752;2023-03-24T05:06:02;99070.50;;;7.51;75.84
70343;BME280;57767;42.068;24.752;2023-03-24T05:07:06;99072.19;;;7.74;77.15
70343;BME280;57767;42.068;24.752;2023-03-24T05:08:08;99071.94;;;8.05;79.77
70343;BME280;57767;42.068;24.752;2023-03-24T05:09:12;99077.47;;;8.31;80.15
70343;BME280;57767;42.068;24.752;2023-03-24T05:10:15;99070.41;;;8.53;77.00
70343;BME280;57767;42.068;24.752;2023-03-24T05:11:20;99066.09;;;8.67;72.21
70343;BME280;57767;42.068;24.752;2023-03-24T05:12:24;99072.38;;;8.93;72.43
70343;BME280;57767;42.068;24.752;2023-03-24T05:13:26;99071.53;;;9.21;75.31
70343;BME280;57767;42.068;24.752;2023-03-24T05:14:28;99074.31;;;9.47;76.49
70343;BME280;57767;42.068;24.752;2023-03-24T05:15:29;99065.94;;;9.78;75.40
70343;BME280;57767;42.068;24.752;2023-03-24T05:16:32;99064.41;;;10.10;75.28
70343;BME280;57767;42.068;24.752;2023-03-24T05:17:33;99063.06;;;10.40;74.16
70343;BME280;57767;42.068;24.752;2023-03-24T05:18:35;99060.03;;;10.70;73.47
70343;BME280;57767;42.068;24.752;2023-03-24T05:19:37;99060.03;;;10.96;71.69
70343;BME280;57767;42.068;24.752;2023-03-24T05:20:39;99067.69;;;11.37;70.60
70343;BME280;57767;42.068;24.752;2023-03-24T05:21:41;99072.44;;;11.73;70.48
70343;BME280;57767;42.068;24.752;2023-03-24T05:22:43;99080.44;;;12.05;68.26
70343;BME280;57767;42.068;24.752;2023-03-24T05:23:50;99056.25;;;12.33;66.18
70343;BME280;57767;42.068;24.752;2023-03-24T05:24:52;99072.25;;;12.76;64.07
70343;BME280;57767;42.068;24.752;2023-03-24T05:25:54;99068.69;;;13.07;62.81
70343;BME280;57767;42.068;24.752;2023-03-24T05:26:55;99078.63;;;13.36;60.94
70343;BME280;57767;42.068;24.752;2023-03-24T05:27:57;99074.88;;;13.62;58.86
70343;BME280;57767;42.068;24.752;2023-03-24T05:29:07;99071.91;;;13.88;57.39
70343;BME280;57767;42.068;24.752;2023-03-24T05:30:09;99076.13;;;14.08;57.02
70343;BME280;57767;42.068;24.752;2023-03-24T05:31:13;99079.69;;;14.31;55.68
70343;BME280;57767;42.068;24.752;2023-03-24T05:32:15;99079.88;;;14.48;55.17
70343;BME280;57767;42.068;24.752;2023-03-24T05:33:17;99080.88;;;14.65;54.27
70343;BME280;57767;42.068;24.752;2023-03-24T05:34:20;99083.09;;;14.80;55.32
70343;BME280;57767;42.068;24.752;2023-03-24T05:35:23;99088.66;;;15.02;54.82
70343;BME280;57767;42.068;24.752;2023-03-24T05:36:25;99088.66;;;15.25;54.45
70343;BME280;57767;42.068;24.752;2023-03-24T05:37:27;99077.75;;;15.38;53.94
70343;BME280;57767;42.068;24.752;2023-03-24T05:38:29;99097.63;;;15.71;52.71
70343;BME280;57767;42.068;24.752;2023-03-24T05:39:31;99098.41;;;15.95;51.41
70343;BME280;57767;42.068;24.752;2023-03-24T05:40:32;99097.06;;;16.09;50.05
70343;BME280;57767;42.068;24.752;2023-03-24T05:41:34;99106.72;;;16.27;48.96
70343;BME280;57767;42.068;24.752;2023-03-24T05:42:38;99103.28;;;16.43;48.60
70343;BME280;57767;42.068;24.752;2023-03-24T05:43:40;99098.03;;;16.48;48.81
70343;BME280;57767;42.068;24.752;2023-03-24T05:44:42;99104.47;;;16.64;49.31
70343;BME280;57767;42.068;24.752;2023-03-24T05:45:47;99098.25;;;16.75;48.50
70343;BME280;57767;42.068;24.752;2023-03-24T05:46:49;99099.31;;;16.91;49.10
70343;BME280;57767;42.068;24.752;2023-03-24T05:47:51;99100.94;;;17.08;47.85
70343;BME280;57767;42.068;24.752;2023-03-24T05:48:53;99104.88;;;17.23;48.20
70343;BME280;57767;42.068;24.752;2023-03-24T05:49:54;99102.66;;;17.36;47.24
70343;BME280;57767;42.068;24.752;2023-03-24T05:50:56;99095.19;;;17.55;46.88
70343;BME280;57767;42.068;24.752;2023-03-24T05:51:58;99096.81;;;17.73;46.92
70343;BME280;57767;42.068;24.752;2023-03-24T05:53:00;99103.44;;;17.92;46.21
70343;BME280;57767;42.068;24.752;2023-03-24T05:54:02;99092.59;;;18.04;45.23
70343;BME280;57767;42.068;24.752;2023-03-24T05:55:09;99086.94;;;18.22;45.46
70343;BME280;57767;42.068;24.752;2023-03-24T05:56:11;99097.50;;;18.39;44.55
70343;BME280;57767;42.068;24.752;2023-03-24T05:57:14;99109.84;;;18.67;44.22
70343;BME280;57767;42.068;24.752;2023-03-24T05:58:16;99119.31;;;18.79;43.91
70343;BME280;57767;42.068;24.752;2023-03-24T05:59:22;99106.03;;;18.89;43.27
70343;BME280;57767;42.068;24.752;2023-03-24T06:00:24;99113.78;;;18.91;43.27
70343;BME280;57767;42.068;24.752;2023-03-24T06:01:27;99112.53;;;18.99;43.17
70343;BME280;57767;42.068;24.752;2023-03-24T06:02:29;99105.88;;;19.06;42.50
70343;BME280;57767;42.068;24.752;2023-03-24T06:03:32;99114.78;;;19.17;41.40
70343;BME280;57767;42.068;24.752;2023-03-24T06:04:35;99111.88;;;19.18;41.02
70343;BME280;57767;42.068;24.752;2023-03-24T06:05:37;99111.66;;;19.25;41.24
70343;BME280;57767;42.068;24.752;2023-03-24T06:06:38;99118.38;;;19.32;41.60
70343;BME280;57767;42.068;24.752;2023-03-24T06:07:41;99111.19;;;19.38;41.36
70343;BME280;57767;42.068;24.752;2023-03-24T06:08:43;99107.22;;;19.46;40.58
70343;BME280;57767;42.068;24.752;2023-03-24T06:09:47;99119.69;;;19.67;40.69
70343;BME280;57767;42.068;24.752;2023-03-24T06:10:51;99115.75;;;19.85;40.61
70343;BME280;57767;42.068;24.752;2023-03-24T06:11:57;99118.50;;;20.00;40.14
70343;BME280;57767;42.068;24.752;2023-03-24T06:12:59;99109.41;;;20.11;39.21
70343;BME280;57767;42.068;24.752;2023-03-24T06:14:01;99107.00;;;20.15;39.04
70343;BME280;57767;42.068;24.752;2023-03-24T06:15:03;99110.53;;;20.25;38.82
70343;BME280;57767;42.068;24.752;2023-03-24T06:16:06;99085.53;;;20.04;38.43
70343;BME280;57767;42.068;24.752;2023-03-24T06:17:08;99113.16;;;20.10;38.90
70343;BME280;57767;42.068;24.752;2023-03-24T06:18:15;99113.47;;;20.29;39.13
70343;BME280;57767;42.068;24.752;2023-03-24T06:19:21;99102.81;;;20.44;38.85
70343;BME280;57767;42.068;24.752;2023-03-24T06:20:28;99114.91;;;20.62;38.63
70343;BME280;57767;42.068;24.752;2023-03-24T06:21:30;99108.75;;;20.71;37.28
70343;BME280;57767;42.068;24.752;2023-03-24T06:22:35;99110.09;;;20.79;37.41
70343;BME280;57767;42.068;24.752;2023-03-24T06:23:37;99112.50;;;20.81;37.52
70343;BME280;57767;42.068;24.752;2023-03-24T06:24:39;99115.19;;;20.96;36.82
70343;BME280;57767;42.068;24.752;2023-03-24T06:25:41;99107.94;;;21.06;36.77
70343;BME280;57767;42.068;24.752;2023-03-24T06:26:48;99109.84;;;21.21;36.43
70343;BME280;57767;42.068;24.752;2023-03-24T06:27:50;99109.53;;;21.33;36.73
70343;BME280;57767;42.068;24.752;2023-03-24T06:28:52;99111.13;;;21.44;36.21
70343;BME280;57767;42.068;24.752;2023-03-24T06:29:54;99107.34;;;21.55;36.21
70343;BME280;57767;42.068;24.752;2023-03-24T06:30:56;99114.00;;;21.73;35.92
70343;BME280;57767;42.068;24.752;2023-03-24T06:31:59;99113.97;;;21.83;35.83
70343;BME280;57767;42.068;24.752;2023-03-24T06:33:01;99109.94;;;21.80;35.47
70343;BME280;57767;42.068;24.752;2023-03-24T06:34:04;99111.28;;;21.88;35.02
70343;BME280;57767;42.068;24.752;2023-03-24T06:35:06;99116.31;;;22.05;34.67
70343;BME280;57767;42.068;24.752;2023-03-24T06:36:09;99111.22;;;21.98;35.03
70343;BME280;57767;42.068;24.752;2023-03-24T06:37:15;99119.31;;;22.03;35.54
70343;BME280;57767;42.068;24.752;2023-03-24T06:38:17;99110.72;;;22.01;34.17